Terminal Aerodrome Forecast
Issued by NWS Austin/San Antonio, TX

Home | Current Version | Previous Version | Text Only | Print | Product List | Glossary On
Versions: 1 2 3 4 5 6 7 8 9 10 11 12
000
FTUS44 KEWX 272300
TAFSAT
TAF
KSAT 272335Z 2800/2906 12004KT P6SM SKC
     FM281000 19004KT P6SM BKN020
     FM281200 19006KT P6SM BKN010
     FM281700 19010KT P6SM BKN030
     FM290100 17007KT P6SM SCT030=

USA.gov is the U.S. government's official web portal to all federal, state and local government web resources and services.